sensor_id;sensor_type;location;lat;lon;timestamp;P1;durP1;ratioP1;P2;durP2;ratioP2
11016;SDS011;54687;50.800;6.772;2024-01-11T00:01:19;37.40;;;31.20;;
11016;SDS011;54687;50.800;6.772;2024-01-11T00:03:46;41.97;;;32.60;;
11016;SDS011;54687;50.800;6.772;2024-01-11T00:06:13;46.47;;;33.77;;
11016;SDS011;54687;50.800;6.772;2024-01-11T00:08:39;43.20;;;34.07;;
11016;SDS011;54687;50.800;6.772;2024-01-11T00:11:06;45.90;;;33.40;;
11016;SDS011;54687;50.800;6.772;2024-01-11T00:13:34;48.97;;;36.73;;
11016;SDS011;54687;50.800;6.772;2024-01-11T00:16:00;44.43;;;33.83;;
11016;SDS011;54687;50.800;6.772;2024-01-11T00:18:27;44.83;;;33.93;;
11016;SDS011;54687;50.800;6.772;2024-01-11T00:20:54;44.93;;;33.83;;
11016;SDS011;54687;50.800;6.772;2024-01-11T00:23:20;44.70;;;34.07;;
11016;SDS011;54687;50.800;6.772;2024-01-11T00:25:48;47.13;;;35.03;;
11016;SDS011;54687;50.800;6.772;2024-01-11T00:28:15;47.17;;;35.50;;
11016;SDS011;54687;50.800;6.772;2024-01-11T00:30:43;52.40;;;38.80;;
11016;SDS011;54687;50.800;6.772;2024-01-11T00:33:09;44.43;;;35.77;;
11016;SDS011;54687;50.800;6.772;2024-01-11T00:35:36;48.03;;;38.40;;
11016;SDS011;54687;50.800;6.772;2024-01-11T00:38:03;49.77;;;38.37;;
11016;SDS011;54687;50.800;6.772;2024-01-11T00:40:30;51.73;;;38.53;;
11016;SDS011;54687;50.800;6.772;2024-01-11T00:42:57;48.10;;;38.27;;
11016;SDS011;54687;50.800;6.772;2024-01-11T00:45:23;53.40;;;39.50;;
11016;SDS011;54687;50.800;6.772;2024-01-11T00:47:52;56.07;;;41.20;;
11016;SDS011;54687;50.800;6.772;2024-01-11T00:50:18;54.17;;;39.97;;
11016;SDS011;54687;50.800;6.772;2024-01-11T00:52:45;53.50;;;40.97;;
11016;SDS011;54687;50.800;6.772;2024-01-11T00:55:11;51.67;;;39.23;;
11016;SDS011;54687;50.800;6.772;2024-01-11T00:57:38;54.67;;;39.87;;
11016;SDS011;54687;50.800;6.772;2024-01-11T01:00:05;51.83;;;39.03;;
11016;SDS011;54687;50.800;6.772;2024-01-11T01:02:33;52.47;;;40.77;;
11016;SDS011;54687;50.800;6.772;2024-01-11T01:05:01;47.97;;;37.33;;
11016;SDS011;54687;50.800;6.772;2024-01-11T01:07:28;54.43;;;40.20;;
11016;SDS011;54687;50.800;6.772;2024-01-11T01:09:55;46.37;;;35.37;;
11016;SDS011;54687;50.800;6.772;2024-01-11T01:12:22;49.47;;;35.87;;
11016;SDS011;54687;50.800;6.772;2024-01-11T01:14:50;47.73;;;36.77;;
11016;SDS011;54687;50.800;6.772;2024-01-11T01:17:17;51.20;;;37.97;;
11016;SDS011;54687;50.800;6.772;2024-01-11T01:19:44;50.03;;;36.97;;
11016;SDS011;54687;50.800;6.772;2024-01-11T01:22:13;50.03;;;36.67;;
11016;SDS011;54687;50.800;6.772;2024-01-11T01:24:39;50.77;;;37.90;;
11016;SDS011;54687;50.800;6.772;2024-01-11T01:27:06;43.37;;;35.67;;
11016;SDS011;54687;50.800;6.772;2024-01-11T01:29:33;49.03;;;36.40;;
11016;SDS011;54687;50.800;6.772;2024-01-11T01:32:00;45.33;;;34.80;;
11016;SDS011;54687;50.800;6.772;2024-01-11T01:34:27;46.50;;;35.73;;
11016;SDS011;54687;50.800;6.772;2024-01-11T01:36:54;48.03;;;35.73;;
11016;SDS011;54687;50.800;6.772;2024-01-11T01:39:25;46.70;;;34.17;;
11016;SDS011;54687;50.800;6.772;2024-01-11T01:41:53;45.83;;;35.50;;
11016;SDS011;54687;50.800;6.772;2024-01-11T01:44:20;49.87;;;38.07;;
11016;SDS011;54687;50.800;6.772;2024-01-11T01:46:47;48.87;;;35.67;;
11016;SDS011;54687;50.800;6.772;2024-01-11T01:49:14;44.77;;;33.90;;
11016;SDS011;54687;50.800;6.772;2024-01-11T01:51:43;40.67;;;31.60;;
11016;SDS011;54687;50.800;6.772;2024-01-11T01:54:10;45.33;;;33.83;;
11016;SDS011;54687;50.800;6.772;2024-01-11T01:56:38;46.37;;;32.97;;
11016;SDS011;54687;50.800;6.772;2024-01-11T01:59:07;42.13;;;31.30;;
11016;SDS011;54687;50.800;6.772;2024-01-11T02:01:36;39.37;;;31.33;;
11016;SDS011;54687;50.800;6.772;2024-01-11T02:04:02;46.57;;;34.03;;
11016;SDS011;54687;50.800;6.772;2024-01-11T02:06:30;42.23;;;32.17;;
11016;SDS011;54687;50.800;6.772;2024-01-11T02:09:02;45.07;;;35.40;;
11016;SDS011;54687;50.800;6.772;2024-01-11T02:11:31;46.00;;;35.17;;
11016;SDS011;54687;50.800;6.772;2024-01-11T02:14:00;46.20;;;33.33;;
11016;SDS011;54687;50.800;6.772;2024-01-11T02:16:28;40.33;;;30.93;;
11016;SDS011;54687;50.800;6.772;2024-01-11T02:18:55;43.40;;;32.83;;
11016;SDS011;54687;50.800;6.772;2024-01-11T02:21:25;41.73;;;32.57;;
11016;SDS011;54687;50.800;6.772;2024-01-11T02:24:02;38.90;;;30.33;;
11016;SDS011;54687;50.800;6.772;2024-01-11T02:26:30;39.60;;;31.63;;
11016;SDS011;54687;50.800;6.772;2024-01-11T02:28:57;37.67;;;30.43;;
11016;SDS011;54687;50.800;6.772;2024-01-11T02:31:24;43.67;;;32.47;;
11016;SDS011;54687;50.800;6.772;2024-01-11T02:33:51;42.73;;;33.03;;
11016;SDS011;54687;50.800;6.772;2024-01-11T02:36:21;41.80;;;33.37;;
11016;SDS011;54687;50.800;6.772;2024-01-11T02:38:50;39.27;;;31.23;;
11016;SDS011;54687;50.800;6.772;2024-01-11T02:41:23;44.60;;;34.63;;
11016;SDS011;54687;50.800;6.772;2024-01-11T02:43:52;41.13;;;32.23;;
11016;SDS011;54687;50.800;6.772;2024-01-11T02:46:20;47.53;;;34.77;;
11016;SDS011;54687;50.800;6.772;2024-01-11T02:48:47;43.80;;;32.97;;
11016;SDS011;54687;50.800;6.772;2024-01-11T02:51:13;47.07;;;35.00;;
11016;SDS011;54687;50.800;6.772;2024-01-11T02:53:40;40.63;;;31.47;;
11016;SDS011;54687;50.800;6.772;2024-01-11T02:56:07;41.30;;;32.20;;
11016;SDS011;54687;50.800;6.772;2024-01-11T02:58:35;45.93;;;33.20;;
11016;SDS011;54687;50.800;6.772;2024-01-11T03:01:01;42.83;;;31.03;;
11016;SDS011;54687;50.800;6.772;2024-01-11T03:03:28;40.97;;;33.27;;
11016;SDS011;54687;50.800;6.772;2024-01-11T03:05:55;43.67;;;33.30;;
11016;SDS011;54687;50.800;6.772;2024-01-11T03:08:22;45.63;;;35.70;;
11016;SDS011;54687;50.800;6.772;2024-01-11T03:10:49;42.53;;;32.37;;
11016;SDS011;54687;50.800;6.772;2024-01-11T03:13:15;46.47;;;35.63;;
11016;SDS011;54687;50.800;6.772;2024-01-11T03:15:43;39.13;;;31.50;;
11016;SDS011;54687;50.800;6.772;2024-01-11T03:18:10;46.10;;;31.60;;
11016;SDS011;54687;50.800;6.772;2024-01-11T03:20:36;46.20;;;32.77;;
11016;SDS011;54687;50.800;6.772;2024-01-11T03:23:03;43.73;;;32.63;;
11016;SDS011;54687;50.800;6.772;2024-01-11T03:25:30;41.43;;;32.60;;
11016;SDS011;54687;50.800;6.772;2024-01-11T03:27:57;45.53;;;35.63;;
11016;SDS011;54687;50.800;6.772;2024-01-11T03:30:25;43.47;;;34.43;;
11016;SDS011;54687;50.800;6.772;2024-01-11T03:32:53;46.80;;;34.97;;
11016;SDS011;54687;50.800;6.772;2024-01-11T03:35:19;46.37;;;34.67;;
11016;SDS011;54687;50.800;6.772;2024-01-11T03:37:46;45.03;;;34.83;;
11016;SDS011;54687;50.800;6.772;2024-01-11T03:40:13;41.93;;;33.00;;
11016;SDS011;54687;50.800;6.772;2024-01-11T03:42:41;45.07;;;34.07;;
11016;SDS011;54687;50.800;6.772;2024-01-11T03:45:08;43.93;;;34.13;;
11016;SDS011;54687;50.800;6.772;2024-01-11T03:47:35;40.30;;;31.23;;
11016;SDS011;54687;50.800;6.772;2024-01-11T03:50:03;39.73;;;30.63;;
11016;SDS011;54687;50.800;6.772;2024-01-11T03:52:31;39.23;;;31.43;;
11016;SDS011;54687;50.800;6.772;2024-01-11T03:54:57;41.87;;;32.27;;
11016;SDS011;54687;50.800;6.772;2024-01-11T03:57:24;42.53;;;32.27;;
11016;SDS011;54687;50.800;6.772;2024-01-11T03:59:50;44.93;;;32.97;;
11016;SDS011;54687;50.800;6.772;2024-01-11T04:02:17;42.40;;;32.73;;
11016;SDS011;54687;50.800;6.772;2024-01-11T04:04:43;42.10;;;32.80;;
11016;SDS011;54687;50.800;6.772;2024-01-11T04:07:11;41.07;;;33.43;;
11016;SDS011;54687;50.800;6.772;2024-01-11T04:09:39;38.67;;;31.63;;
11016;SDS011;54687;50.800;6.772;2024-01-11T04:12:05;45.23;;;32.73;;
11016;SDS011;54687;50.800;6.772;2024-01-11T04:14:32;43.67;;;32.07;;
11016;SDS011;54687;50.800;6.772;2024-01-11T04:16:59;38.40;;;29.73;;
11016;SDS011;54687;50.800;6.772;2024-01-11T04:19:26;37.83;;;29.73;;
11016;SDS011;54687;50.800;6.772;2024-01-11T04:21:52;43.17;;;33.00;;
11016;SDS011;54687;50.800;6.772;2024-01-11T04:24:20;41.80;;;31.67;;
11016;SDS011;54687;50.800;6.772;2024-01-11T04:26:47;35.80;;;28.80;;
11016;SDS011;54687;50.800;6.772;2024-01-11T04:29:13;40.13;;;30.23;;
11016;SDS011;54687;50.800;6.772;2024-01-11T04:31:40;41.40;;;31.60;;
11016;SDS011;54687;50.800;6.772;2024-01-11T04:34:07;46.73;;;35.33;;
11016;SDS011;54687;50.800;6.772;2024-01-11T04:36:36;45.90;;;36.87;;
11016;SDS011;54687;50.800;6.772;2024-01-11T04:39:03;41.83;;;31.40;;
11016;SDS011;54687;50.800;6.772;2024-01-11T04:41:33;40.60;;;32.07;;
11016;SDS011;54687;50.800;6.772;2024-01-11T04:44:01;42.17;;;34.17;;
11016;SDS011;54687;50.800;6.772;2024-01-11T04:46:28;45.10;;;36.00;;
11016;SDS011;54687;50.800;6.772;2024-01-11T04:48:55;39.60;;;31.97;;
11016;SDS011;54687;50.800;6.772;2024-01-11T04:51:22;39.57;;;31.50;;
11016;SDS011;54687;50.800;6.772;2024-01-11T04:53:48;37.30;;;30.00;;
11016;SDS011;54687;50.800;6.772;2024-01-11T04:56:15;38.40;;;30.77;;
11016;SDS011;54687;50.800;6.772;2024-01-11T04:58:44;44.93;;;34.83;;
11016;SDS011;54687;50.800;6.772;2024-01-11T05:01:11;43.10;;;33.40;;
11016;SDS011;54687;50.800;6.772;2024-01-11T05:03:39;40.27;;;30.90;;
11016;SDS011;54687;50.800;6.772;2024-01-11T05:06:05;44.10;;;32.07;;
11016;SDS011;54687;50.800;6.772;2024-01-11T05:08:52;41.33;;;31.67;;
11016;SDS011;54687;50.800;6.772;2024-01-11T05:11:19;39.50;;;30.83;;
11016;SDS011;54687;50.800;6.772;2024-01-11T05:13:48;39.73;;;32.43;;
11016;SDS011;54687;50.800;6.772;2024-01-11T05:16:18;44.47;;;34.27;;
11016;SDS011;54687;50.800;6.772;2024-01-11T05:18:46;44.70;;;34.10;;
11016;SDS011;54687;50.800;6.772;2024-01-11T05:21:13;47.67;;;36.80;;
11016;SDS011;54687;50.800;6.772;2024-01-11T05:23:40;46.67;;;35.77;;
11016;SDS011;54687;50.800;6.772;2024-01-11T05:26:06;45.73;;;31.27;;
11016;SDS011;54687;50.800;6.772;2024-01-11T05:28:33;41.73;;;31.37;;
11016;SDS011;54687;50.800;6.772;2024-01-11T05:31:01;42.13;;;33.23;;
11016;SDS011;54687;50.800;6.772;2024-01-11T05:33:28;41.17;;;32.10;;
11016;SDS011;54687;50.800;6.772;2024-01-11T05:35:56;38.93;;;31.07;;
11016;SDS011;54687;50.800;6.772;2024-01-11T05:38:22;48.63;;;33.53;;
11016;SDS011;54687;50.800;6.772;2024-01-11T05:40:49;41.87;;;32.27;;
11016;SDS011;54687;50.800;6.772;2024-01-11T05:43:15;44.50;;;31.47;;
11016;SDS011;54687;50.800;6.772;2024-01-11T05:45:43;43.07;;;32.33;;
11016;SDS011;54687;50.800;6.772;2024-01-11T05:48:11;43.00;;;32.37;;
11016;SDS011;54687;50.800;6.772;2024-01-11T05:50:38;42.90;;;33.00;;
11016;SDS011;54687;50.800;6.772;2024-01-11T05:53:06;37.67;;;32.00;;
11016;SDS011;54687;50.800;6.772;2024-01-11T05:55:32;45.60;;;35.33;;
11016;SDS011;54687;50.800;6.772;2024-01-11T05:57:59;43.73;;;33.17;;
11016;SDS011;54687;50.800;6.772;2024-01-11T06:00:26;42.40;;;33.63;;
11016;SDS011;54687;50.800;6.772;2024-01-11T06:02:53;43.50;;;34.87;;
11016;SDS011;54687;50.800;6.772;2024-01-11T06:05:21;41.40;;;32.37;;
11016;SDS011;54687;50.800;6.772;2024-01-11T06:07:47;41.30;;;34.17;;
11016;SDS011;54687;50.800;6.772;2024-01-11T06:10:14;41.60;;;31.77;;
11016;SDS011;54687;50.800;6.772;2024-01-11T06:12:40;44.83;;;33.63;;
11016;SDS011;54687;50.800;6.772;2024-01-11T06:15:07;42.43;;;33.50;;
11016;SDS011;54687;50.800;6.772;2024-01-11T06:17:34;41.77;;;32.70;;
11016;SDS011;54687;50.800;6.772;2024-01-11T06:20:01;47.17;;;34.90;;
11016;SDS011;54687;50.800;6.772;2024-01-11T06:22:30;46.80;;;35.43;;
11016;SDS011;54687;50.800;6.772;2024-01-11T06:24:56;43.23;;;34.10;;
11016;SDS011;54687;50.800;6.772;2024-01-11T06:27:24;44.50;;;34.47;;
11016;SDS011;54687;50.800;6.772;2024-01-11T06:29:51;46.10;;;34.03;;
11016;SDS011;54687;50.800;6.772;2024-01-11T06:32:18;48.23;;;36.90;;
11016;SDS011;54687;50.800;6.772;2024-01-11T06:34:44;53.13;;;37.60;;
11016;SDS011;54687;50.800;6.772;2024-01-11T06:37:12;53.03;;;37.10;;
11016;SDS011;54687;50.800;6.772;2024-01-11T06:39:40;52.93;;;38.77;;
11016;SDS011;54687;50.800;6.772;2024-01-11T06:42:07;49.77;;;38.13;;
11016;SDS011;54687;50.800;6.772;2024-01-11T06:44:32;47.17;;;36.53;;
11016;SDS011;54687;50.800;6.772;2024-01-11T06:46:59;52.67;;;37.63;;
11016;SDS011;54687;50.800;6.772;2024-01-11T06:49:26;53.40;;;38.40;;
11016;SDS011;54687;50.800;6.772;2024-01-11T06:51:53;56.33;;;40.57;;
11016;SDS011;54687;50.800;6.772;2024-01-11T06:54:20;55.47;;;41.10;;
11016;SDS011;54687;50.800;6.772;2024-01-11T06:56:47;52.83;;;40.43;;
11016;SDS011;54687;50.800;6.772;2024-01-11T06:59:14;53.03;;;38.77;;
11016;SDS011;54687;50.800;6.772;2024-01-11T07:01:41;51.13;;;38.93;;
11016;SDS011;54687;50.800;6.772;2024-01-11T07:04:07;48.67;;;36.63;;
11016;SDS011;54687;50.800;6.772;2024-01-11T07:06:34;52.30;;;37.83;;
11016;SDS011;54687;50.800;6.772;2024-01-11T07:09:00;49.83;;;36.60;;
11016;SDS011;54687;50.800;6.772;2024-01-11T07:11:27;47.57;;;36.27;;
11016;SDS011;54687;50.800;6.772;2024-01-11T07:13:55;51.33;;;37.90;;
11016;SDS011;54687;50.800;6.772;2024-01-11T07:16:21;50.23;;;34.97;;
11016;SDS011;54687;50.800;6.772;2024-01-11T07:18:48;47.90;;;36.03;;
11016;SDS011;54687;50.800;6.772;2024-01-11T07:21:19;47.00;;;35.10;;
11016;SDS011;54687;50.800;6.772;2024-01-11T07:23:54;52.60;;;37.30;;
11016;SDS011;54687;50.800;6.772;2024-01-11T07:26:21;54.70;;;39.87;;
11016;SDS011;54687;50.800;6.772;2024-01-11T07:28:48;51.47;;;39.90;;
11016;SDS011;54687;50.800;6.772;2024-01-11T07:31:16;57.70;;;40.50;;
11016;SDS011;54687;50.800;6.772;2024-01-11T07:33:43;51.60;;;37.67;;
11016;SDS011;54687;50.800;6.772;2024-01-11T07:36:10;49.10;;;37.33;;
11016;SDS011;54687;50.800;6.772;2024-01-11T07:38:37;48.47;;;36.37;;
11016;SDS011;54687;50.800;6.772;2024-01-11T07:41:03;49.07;;;37.87;;
11016;SDS011;54687;50.800;6.772;2024-01-11T07:43:30;56.17;;;39.97;;
11016;SDS011;54687;50.800;6.772;2024-01-11T07:46:00;51.37;;;38.80;;
11016;SDS011;54687;50.800;6.772;2024-01-11T07:48:28;54.50;;;40.97;;
11016;SDS011;54687;50.800;6.772;2024-01-11T07:50:55;55.93;;;40.43;;
11016;SDS011;54687;50.800;6.772;2024-01-11T07:53:21;55.97;;;38.67;;
11016;SDS011;54687;50.800;6.772;2024-01-11T07:55:48;47.83;;;38.20;;
11016;SDS011;54687;50.800;6.772;2024-01-11T07:58:15;51.03;;;39.60;;
11016;SDS011;54687;50.800;6.772;2024-01-11T08:00:41;51.07;;;39.23;;
11016;SDS011;54687;50.800;6.772;2024-01-11T08:03:08;51.17;;;38.33;;
11016;SDS011;54687;50.800;6.772;2024-01-11T08:05:36;52.83;;;39.93;;
11016;SDS011;54687;50.800;6.772;2024-01-11T08:08:03;58.40;;;41.53;;
11016;SDS011;54687;50.800;6.772;2024-01-11T08:10:30;51.73;;;40.83;;
11016;SDS011;54687;50.800;6.772;2024-01-11T08:12:57;54.17;;;37.33;;
11016;SDS011;54687;50.800;6.772;2024-01-11T08:15:24;58.70;;;40.33;;
11016;SDS011;54687;50.800;6.772;2024-01-11T08:17:51;55.27;;;39.67;;
11016;SDS011;54687;50.800;6.772;2024-01-11T08:20:17;55.33;;;41.60;;
11016;SDS011;54687;50.800;6.772;2024-01-11T08:22:46;54.73;;;39.73;;
11016;SDS011;54687;50.800;6.772;2024-01-11T08:25:12;50.53;;;38.77;;
11016;SDS011;54687;50.800;6.772;2024-01-11T08:27:39;56.60;;;42.83;;
11016;SDS011;54687;50.800;6.772;2024-01-11T08:30:06;56.10;;;41.70;;
11016;SDS011;54687;50.800;6.772;2024-01-11T08:32:34;52.90;;;40.03;;
11016;SDS011;54687;50.800;6.772;2024-01-11T08:35:04;61.13;;;42.00;;
11016;SDS011;54687;50.800;6.772;2024-01-11T08:37:33;54.27;;;39.03;;
11016;SDS011;54687;50.800;6.772;2024-01-11T08:40:01;51.13;;;38.33;;
11016;SDS011;54687;50.800;6.772;2024-01-11T08:42:30;55.43;;;39.07;;
11016;SDS011;54687;50.800;6.772;2024-01-11T08:44:56;48.73;;;40.13;;
11016;SDS011;54687;50.800;6.772;2024-01-11T08:47:23;49.23;;;37.13;;
11016;SDS011;54687;50.800;6.772;2024-01-11T08:49:50;51.93;;;38.97;;
11016;SDS011;54687;50.800;6.772;2024-01-11T08:52:17;48.37;;;36.13;;
11016;SDS011;54687;50.800;6.772;2024-01-11T08:54:44;54.10;;;37.53;;
11016;SDS011;54687;50.800;6.772;2024-01-11T08:57:12;52.77;;;37.33;;
11016;SDS011;54687;50.800;6.772;2024-01-11T08:59:39;61.53;;;38.57;;
11016;SDS011;54687;50.800;6.772;2024-01-11T09:02:06;51.87;;;38.53;;
11016;SDS011;54687;50.800;6.772;2024-01-11T09:04:33;47.87;;;37.40;;
11016;SDS011;54687;50.800;6.772;2024-01-11T09:06:59;53.07;;;38.40;;
11016;SDS011;54687;50.800;6.772;2024-01-11T09:09:26;47.87;;;37.37;;
11016;SDS011;54687;50.800;6.772;2024-01-11T09:11:53;60.53;;;37.83;;
11016;SDS011;54687;50.800;6.772;2024-01-11T09:14:21;54.80;;;38.10;;
11016;SDS011;54687;50.800;6.772;2024-01-11T09:16:48;57.83;;;42.27;;
11016;SDS011;54687;50.800;6.772;2024-01-11T09:19:15;55.37;;;38.20;;
11016;SDS011;54687;50.800;6.772;2024-01-11T09:21:42;62.03;;;41.13;;
11016;SDS011;54687;50.800;6.772;2024-01-11T09:24:08;55.50;;;39.83;;
11016;SDS011;54687;50.800;6.772;2024-01-11T09:26:35;53.33;;;40.67;;
11016;SDS011;54687;50.800;6.772;2024-01-11T09:29:02;55.00;;;40.60;;
11016;SDS011;54687;50.800;6.772;2024-01-11T09:31:30;60.83;;;40.90;;
11016;SDS011;54687;50.800;6.772;2024-01-11T09:33:56;64.40;;;41.93;;
11016;SDS011;54687;50.800;6.772;2024-01-11T09:36:23;61.43;;;41.90;;
11016;SDS011;54687;50.800;6.772;2024-01-11T09:38:49;58.07;;;42.07;;
11016;SDS011;54687;50.800;6.772;2024-01-11T09:41:16;58.10;;;41.83;;
11016;SDS011;54687;50.800;6.772;2024-01-11T09:43:43;60.30;;;42.80;;
11016;SDS011;54687;50.800;6.772;2024-01-11T09:46:12;58.70;;;42.43;;
11016;SDS011;54687;50.800;6.772;2024-01-11T09:48:40;57.90;;;41.50;;
11016;SDS011;54687;50.800;6.772;2024-01-11T09:51:12;60.43;;;42.70;;
11016;SDS011;54687;50.800;6.772;2024-01-11T09:53:39;62.00;;;41.03;;
11016;SDS011;54687;50.800;6.772;2024-01-11T09:56:09;62.23;;;42.57;;
11016;SDS011;54687;50.800;6.772;2024-01-11T09:58:36;55.13;;;41.73;;
11016;SDS011;54687;50.800;6.772;2024-01-11T10:01:05;55.33;;;39.63;;
11016;SDS011;54687;50.800;6.772;2024-01-11T10:03:35;58.13;;;41.80;;
11016;SDS011;54687;50.800;6.772;2024-01-11T10:06:03;55.90;;;39.43;;
11016;SDS011;54687;50.800;6.772;2024-01-11T10:08:32;55.90;;;40.67;;
11016;SDS011;54687;50.800;6.772;2024-01-11T10:10:59;55.90;;;41.70;;
11016;SDS011;54687;50.800;6.772;2024-01-11T10:13:26;52.63;;;37.33;;
11016;SDS011;54687;50.800;6.772;2024-01-11T10:16:03;54.50;;;39.97;;
11016;SDS011;54687;50.800;6.772;2024-01-11T10:18:31;50.57;;;39.70;;
11016;SDS011;54687;50.800;6.772;2024-01-11T10:20:58;61.67;;;41.33;;
11016;SDS011;54687;50.800;6.772;2024-01-11T10:23:25;57.17;;;40.87;;
11016;SDS011;54687;50.800;6.772;2024-01-11T10:25:54;56.50;;;40.07;;
11016;SDS011;54687;50.800;6.772;2024-01-11T10:28:22;57.07;;;41.17;;
11016;SDS011;54687;50.800;6.772;2024-01-11T10:30:50;55.67;;;39.00;;
11016;SDS011;54687;50.800;6.772;2024-01-11T10:33:18;56.27;;;41.57;;
11016;SDS011;54687;50.800;6.772;2024-01-11T10:35:46;59.63;;;41.10;;
11016;SDS011;54687;50.800;6.772;2024-01-11T10:38:14;51.83;;;38.33;;
11016;SDS011;54687;50.800;6.772;2024-01-11T10:40:42;58.43;;;41.30;;
11016;SDS011;54687;50.800;6.772;2024-01-11T10:43:09;58.10;;;39.33;;
11016;SDS011;54687;50.800;6.772;2024-01-11T10:45:38;59.10;;;41.73;;
11016;SDS011;54687;50.800;6.772;2024-01-11T10:48:06;58.90;;;41.43;;
11016;SDS011;54687;50.800;6.772;2024-01-11T10:50:41;59.13;;;41.47;;
11016;SDS011;54687;50.800;6.772;2024-01-11T10:53:12;53.83;;;39.70;;
11016;SDS011;54687;50.800;6.772;2024-01-11T10:55:50;53.00;;;37.90;;
11016;SDS011;54687;50.800;6.772;2024-01-11T10:58:18;52.33;;;38.77;;
11016;SDS011;54687;50.800;6.772;2024-01-11T11:00:47;55.03;;;41.00;;
11016;SDS011;54687;50.800;6.772;2024-01-11T11:03:15;53.97;;;40.20;;
11016;SDS011;54687;50.800;6.772;2024-01-11T11:05:44;53.47;;;39.80;;
11016;SDS011;54687;50.800;6.772;2024-01-11T11:08:15;51.30;;;39.03;;
11016;SDS011;54687;50.800;6.772;2024-01-11T11:10:44;54.87;;;40.83;;
11016;SDS011;54687;50.800;6.772;2024-01-11T11:13:14;52.63;;;38.63;;
11016;SDS011;54687;50.800;6.772;2024-01-11T11:15:41;54.80;;;40.60;;
11016;SDS011;54687;50.800;6.772;2024-01-11T11:18:11;56.10;;;41.47;;
11016;SDS011;54687;50.800;6.772;2024-01-11T11:20:38;57.90;;;40.37;;
11016;SDS011;54687;50.800;6.772;2024-01-11T11:23:07;60.00;;;42.87;;
11016;SDS011;54687;50.800;6.772;2024-01-11T11:25:36;57.13;;;42.10;;
11016;SDS011;54687;50.800;6.772;2024-01-11T11:28:04;55.77;;;43.03;;
11016;SDS011;54687;50.800;6.772;2024-01-11T11:30:32;57.80;;;42.83;;
11016;SDS011;54687;50.800;6.772;2024-01-11T11:33:07;57.77;;;43.73;;
11016;SDS011;54687;50.800;6.772;2024-01-11T11:35:35;57.53;;;42.60;;
11016;SDS011;54687;50.800;6.772;2024-01-11T11:38:01;59.73;;;43.77;;
11016;SDS011;54687;50.800;6.772;2024-01-11T11:40:32;55.63;;;41.67;;
11016;SDS011;54687;50.800;6.772;2024-01-11T11:43:04;66.70;;;47.40;;
11016;SDS011;54687;50.800;6.772;2024-01-11T11:45:32;63.83;;;45.83;;
11016;SDS011;54687;50.800;6.772;2024-01-11T11:47:59;63.20;;;44.63;;
11016;SDS011;54687;50.800;6.772;2024-01-11T11:50:25;60.97;;;44.57;;
11016;SDS011;54687;50.800;6.772;2024-01-11T11:52:55;57.57;;;45.13;;
11016;SDS011;54687;50.800;6.772;2024-01-11T11:55:23;56.27;;;44.23;;
11016;SDS011;54687;50.800;6.772;2024-01-11T11:57:50;58.17;;;43.13;;
11016;SDS011;54687;50.800;6.772;2024-01-11T12:00:18;70.37;;;45.70;;
11016;SDS011;54687;50.800;6.772;2024-01-11T12:02:47;63.90;;;46.37;;
11016;SDS011;54687;50.800;6.772;2024-01-11T12:05:16;58.20;;;43.30;;
11016;SDS011;54687;50.800;6.772;2024-01-11T12:07:43;58.37;;;43.03;;
11016;SDS011;54687;50.800;6.772;2024-01-11T12:10:10;57.70;;;45.10;;
11016;SDS011;54687;50.800;6.772;2024-01-11T12:12:37;54.07;;;42.30;;
11016;SDS011;54687;50.800;6.772;2024-01-11T12:15:05;57.20;;;41.57;;
11016;SDS011;54687;50.800;6.772;2024-01-11T12:17:33;57.80;;;42.90;;
11016;SDS011;54687;50.800;6.772;2024-01-11T12:20:01;62.27;;;44.27;;
11016;SDS011;54687;50.800;6.772;2024-01-11T12:22:29;56.90;;;43.53;;
11016;SDS011;54687;50.800;6.772;2024-01-11T12:24:56;59.20;;;45.00;;
11016;SDS011;54687;50.800;6.772;2024-01-11T12:27:22;58.57;;;43.83;;
11016;SDS011;54687;50.800;6.772;2024-01-11T12:29:49;65.93;;;45.07;;
11016;SDS011;54687;50.800;6.772;2024-01-11T12:32:16;62.60;;;47.60;;
11016;SDS011;54687;50.800;6.772;2024-01-11T12:34:43;61.97;;;45.83;;
11016;SDS011;54687;50.800;6.772;2024-01-11T12:37:12;60.87;;;45.97;;
11016;SDS011;54687;50.800;6.772;2024-01-11T12:39:38;59.03;;;45.57;;
11016;SDS011;54687;50.800;6.772;2024-01-11T12:42:05;51.03;;;42.63;;
11016;SDS011;54687;50.800;6.772;2024-01-11T12:44:32;56.20;;;44.33;;
11016;SDS011;54687;50.800;6.772;2024-01-11T12:47:00;59.47;;;43.40;;
11016;SDS011;54687;50.800;6.772;2024-01-11T12:49:27;58.10;;;43.70;;
11016;SDS011;54687;50.800;6.772;2024-01-11T12:51:53;55.77;;;44.73;;
11016;SDS011;54687;50.800;6.772;2024-01-11T12:54:21;60.60;;;45.17;;
11016;SDS011;54687;50.800;6.772;2024-01-11T12:56:48;56.87;;;43.07;;
11016;SDS011;54687;50.800;6.772;2024-01-11T12:59:15;56.30;;;43.43;;
11016;SDS011;54687;50.800;6.772;2024-01-11T13:01:42;57.50;;;43.70;;
11016;SDS011;54687;50.800;6.772;2024-01-11T13:04:09;55.13;;;43.80;;
11016;SDS011;54687;50.800;6.772;2024-01-11T13:06:36;57.37;;;42.57;;
11016;SDS011;54687;50.800;6.772;2024-01-11T13:09:02;57.67;;;41.50;;
11016;SDS011;54687;50.800;6.772;2024-01-11T13:11:30;61.23;;;40.73;;
11016;SDS011;54687;50.800;6.772;2024-01-11T13:13:58;50.37;;;41.20;;
11016;SDS011;54687;50.800;6.772;2024-01-11T13:16:29;58.27;;;43.03;;
11016;SDS011;54687;50.800;6.772;2024-01-11T13:18:56;57.67;;;40.37;;
11016;SDS011;54687;50.800;6.772;2024-01-11T13:21:23;55.67;;;41.33;;
11016;SDS011;54687;50.800;6.772;2024-01-11T13:23:50;55.87;;;41.83;;
11016;SDS011;54687;50.800;6.772;2024-01-11T13:26:16;64.43;;;43.43;;
11016;SDS011;54687;50.800;6.772;2024-01-11T13:28:45;55.47;;;41.77;;
11016;SDS011;54687;50.800;6.772;2024-01-11T13:31:11;64.00;;;44.93;;
11016;SDS011;54687;50.800;6.772;2024-01-11T13:33:38;65.27;;;49.33;;
11016;SDS011;54687;50.800;6.772;2024-01-11T13:36:06;56.80;;;42.00;;
11016;SDS011;54687;50.800;6.772;2024-01-11T13:38:33;59.20;;;41.20;;
11016;SDS011;54687;50.800;6.772;2024-01-11T13:41:00;56.53;;;41.03;;
11016;SDS011;54687;50.800;6.772;2024-01-11T13:43:27;55.73;;;41.20;;
11016;SDS011;54687;50.800;6.772;2024-01-11T13:45:55;62.83;;;41.03;;
11016;SDS011;54687;50.800;6.772;2024-01-11T13:48:22;55.43;;;41.00;;
11016;SDS011;54687;50.800;6.772;2024-01-11T13:50:49;56.37;;;40.00;;
11016;SDS011;54687;50.800;6.772;2024-01-11T13:53:16;56.40;;;41.27;;
11016;SDS011;54687;50.800;6.772;2024-01-11T13:55:42;52.73;;;41.13;;
11016;SDS011;54687;50.800;6.772;2024-01-11T13:58:09;62.40;;;43.43;;
11016;SDS011;54687;50.800;6.772;2024-01-11T14:00:37;56.27;;;42.53;;
11016;SDS011;54687;50.800;6.772;2024-01-11T14:03:06;64.70;;;45.67;;
11016;SDS011;54687;50.800;6.772;2024-01-11T14:05:33;65.17;;;45.77;;
11016;SDS011;54687;50.800;6.772;2024-01-11T14:08:00;58.23;;;43.87;;
11016;SDS011;54687;50.800;6.772;2024-01-11T14:10:30;65.27;;;44.20;;
11016;SDS011;54687;50.800;6.772;2024-01-11T14:12:57;59.20;;;42.00;;
11016;SDS011;54687;50.800;6.772;2024-01-11T14:15:24;57.90;;;41.30;;
11016;SDS011;54687;50.800;6.772;2024-01-11T14:17:50;65.70;;;43.20;;
11016;SDS011;54687;50.800;6.772;2024-01-11T14:20:19;62.40;;;43.60;;
11016;SDS011;54687;50.800;6.772;2024-01-11T14:22:46;64.30;;;42.93;;